sensor_id;sensor_type;location;lat;lon;timestamp;temperature;humidity
26037;DHT22;13810;48.376;10.944;2023-03-14T00:00:25;9.50;99.90
26037;DHT22;13810;48.376;10.944;2023-03-14T00:00:56;9.50;99.90
26037;DHT22;13810;48.376;10.944;2023-03-14T00:01:27;9.50;99.90
26037;DHT22;13810;48.376;10.944;2023-03-14T00:01:58;9.50;99.90
26037;DHT22;13810;48.376;10.944;2023-03-14T00:02:28;9.50;99.90
26037;DHT22;13810;48.376;10.944;2023-03-14T00:02:59;9.50;99.90
26037;DHT22;13810;48.376;10.944;2023-03-14T00:03:30;9.50;99.90
26037;DHT22;13810;48.376;10.944;2023-03-14T00:04:00;9.50;99.90
26037;DHT22;13810;48.376;10.944;2023-03-14T00:04:34;9.50;99.90
26037;DHT22;13810;48.376;10.944;2023-03-14T00:05:05;9.50;99.90
26037;DHT22;13810;48.376;10.944;2023-03-14T00:05:38;9.50;99.90
26037;DHT22;13810;48.376;10.944;2023-03-14T00:06:10;9.50;99.90
26037;DHT22;13810;48.376;10.944;2023-03-14T00:06:41;9.50;99.90
26037;DHT22;13810;48.376;10.944;2023-03-14T00:07:12;9.50;99.90
26037;DHT22;13810;48.376;10.944;2023-03-14T00:07:43;9.50;99.90
26037;DHT22;13810;48.376;10.944;2023-03-14T00:08:14;9.50;99.90
26037;DHT22;13810;48.376;10.944;2023-03-14T00:08:44;9.50;99.90
26037;DHT22;13810;48.376;10.944;2023-03-14T00:09:16;9.50;99.90
26037;DHT22;13810;48.376;10.944;2023-03-14T00:09:47;9.60;99.90
26037;DHT22;13810;48.376;10.944;2023-03-14T00:10:18;9.60;99.90
26037;DHT22;13810;48.376;10.944;2023-03-14T00:10:49;9.60;99.90
26037;DHT22;13810;48.376;10.944;2023-03-14T00:11:21;9.60;99.90
26037;DHT22;13810;48.376;10.944;2023-03-14T00:11:53;9.60;99.90
26037;DHT22;13810;48.376;10.944;2023-03-14T00:12:24;9.60;99.90
26037;DHT22;13810;48.376;10.944;2023-03-14T00:12:54;9.60;99.90
26037;DHT22;13810;48.376;10.944;2023-03-14T00:13:25;9.60;99.90
26037;DHT22;13810;48.376;10.944;2023-03-14T00:13:55;9.60;99.90
26037;DHT22;13810;48.376;10.944;2023-03-14T00:14:26;9.60;99.90
26037;DHT22;13810;48.376;10.944;2023-03-14T00:14:57;9.60;99.90
26037;DHT22;13810;48.376;10.944;2023-03-14T00:15:27;9.60;99.90
26037;DHT22;13810;48.376;10.944;2023-03-14T00:16:04;9.60;99.90
26037;DHT22;13810;48.376;10.944;2023-03-14T00:16:35;9.60;99.90
26037;DHT22;13810;48.376;10.944;2023-03-14T00:17:06;9.70;99.90
26037;DHT22;13810;48.376;10.944;2023-03-14T00:17:37;9.70;99.90
26037;DHT22;13810;48.376;10.944;2023-03-14T00:18:08;9.70;99.90
26037;DHT22;13810;48.376;10.944;2023-03-14T00:18:39;9.70;99.90
26037;DHT22;13810;48.376;10.944;2023-03-14T00:19:10;9.70;99.90
26037;DHT22;13810;48.376;10.944;2023-03-14T00:19:40;9.70;99.90
26037;DHT22;13810;48.376;10.944;2023-03-14T00:20:11;9.70;99.90
26037;DHT22;13810;48.376;10.944;2023-03-14T00:20:42;9.70;99.90
26037;DHT22;13810;48.376;10.944;2023-03-14T00:21:13;9.70;99.90
26037;DHT22;13810;48.376;10.944;2023-03-14T00:21:44;9.70;99.90
26037;DHT22;13810;48.376;10.944;2023-03-14T00:22:14;9.70;99.90
26037;DHT22;13810;48.376;10.944;2023-03-14T00:22:45;9.60;99.90
26037;DHT22;13810;48.376;10.944;2023-03-14T00:23:16;9.70;99.90
26037;DHT22;13810;48.376;10.944;2023-03-14T00:23:46;9.70;99.90
26037;DHT22;13810;48.376;10.944;2023-03-14T00:24:17;9.70;99.90
26037;DHT22;13810;48.376;10.944;2023-03-14T00:24:47;9.70;99.90
26037;DHT22;13810;48.376;10.944;2023-03-14T00:25:18;9.70;99.90
26037;DHT22;13810;48.376;10.944;2023-03-14T00:25:49;9.70;99.90
26037;DHT22;13810;48.376;10.944;2023-03-14T00:26:21;9.70;99.90
26037;DHT22;13810;48.376;10.944;2023-03-14T00:26:51;9.70;99.90
26037;DHT22;13810;48.376;10.944;2023-03-14T00:27:22;9.70;99.90
26037;DHT22;13810;48.376;10.944;2023-03-14T00:27:53;9.70;99.90
26037;DHT22;13810;48.376;10.944;2023-03-14T00:28:23;9.70;99.90
26037;DHT22;13810;48.376;10.944;2023-03-14T00:28:54;9.70;99.90
26037;DHT22;13810;48.376;10.944;2023-03-14T00:29:25;9.70;99.90
26037;DHT22;13810;48.376;10.944;2023-03-14T00:29:55;9.70;99.90
26037;DHT22;13810;48.376;10.944;2023-03-14T00:30:26;9.70;99.90
26037;DHT22;13810;48.376;10.944;2023-03-14T00:30:57;9.70;99.90
26037;DHT22;13810;48.376;10.944;2023-03-14T00:31:27;9.70;99.90
26037;DHT22;13810;48.376;10.944;2023-03-14T00:31:58;9.70;99.90
26037;DHT22;13810;48.376;10.944;2023-03-14T00:32:29;9.70;99.90
26037;DHT22;13810;48.376;10.944;2023-03-14T00:33:00;9.70;99.90
26037;DHT22;13810;48.376;10.944;2023-03-14T00:33:30;9.70;99.90
26037;DHT22;13810;48.376;10.944;2023-03-14T00:34:01;9.70;99.90
26037;DHT22;13810;48.376;10.944;2023-03-14T00:34:33;9.70;99.90
26037;DHT22;13810;48.376;10.944;2023-03-14T00:35:04;9.70;99.90
26037;DHT22;13810;48.376;10.944;2023-03-14T00:35:34;9.80;99.90
26037;DHT22;13810;48.376;10.944;2023-03-14T00:36:08;9.70;99.90
26037;DHT22;13810;48.376;10.944;2023-03-14T00:36:39;9.70;99.90
26037;DHT22;13810;48.376;10.944;2023-03-14T00:37:10;9.70;99.90
26037;DHT22;13810;48.376;10.944;2023-03-14T00:37:40;9.70;99.90
26037;DHT22;13810;48.376;10.944;2023-03-14T00:38:11;9.70;99.90
26037;DHT22;13810;48.376;10.944;2023-03-14T00:38:43;9.70;99.90
26037;DHT22;13810;48.376;10.944;2023-03-14T00:39:14;9.70;99.90
26037;DHT22;13810;48.376;10.944;2023-03-14T00:39:44;9.70;99.90
26037;DHT22;13810;48.376;10.944;2023-03-14T00:40:15;9.70;99.90
26037;DHT22;13810;48.376;10.944;2023-03-14T00:40:46;9.70;99.90
26037;DHT22;13810;48.376;10.944;2023-03-14T00:41:20;9.60;99.90
26037;DHT22;13810;48.376;10.944;2023-03-14T00:41:52;9.70;99.90
26037;DHT22;13810;48.376;10.944;2023-03-14T00:42:23;9.60;99.90
26037;DHT22;13810;48.376;10.944;2023-03-14T00:42:53;9.60;99.90
26037;DHT22;13810;48.376;10.944;2023-03-14T00:43:24;9.60;99.90
26037;DHT22;13810;48.376;10.944;2023-03-14T00:43:55;9.60;99.90
26037;DHT22;13810;48.376;10.944;2023-03-14T00:44:26;9.60;99.90
26037;DHT22;13810;48.376;10.944;2023-03-14T00:44:56;9.60;99.90
26037;DHT22;13810;48.376;10.944;2023-03-14T00:45:27;9.60;99.90
26037;DHT22;13810;48.376;10.944;2023-03-14T00:45:57;9.70;99.90
26037;DHT22;13810;48.376;10.944;2023-03-14T00:46:28;9.70;99.90
26037;DHT22;13810;48.376;10.944;2023-03-14T00:46:59;9.60;99.90
26037;DHT22;13810;48.376;10.944;2023-03-14T00:47:29;9.60;99.90
26037;DHT22;13810;48.376;10.944;2023-03-14T00:48:00;9.70;99.90
26037;DHT22;13810;48.376;10.944;2023-03-14T00:48:31;9.60;99.90
26037;DHT22;13810;48.376;10.944;2023-03-14T00:49:02;9.60;99.90
26037;DHT22;13810;48.376;10.944;2023-03-14T00:49:32;9.70;99.90
26037;DHT22;13810;48.376;10.944;2023-03-14T00:50:03;9.70;99.90
26037;DHT22;13810;48.376;10.944;2023-03-14T00:50:34;9.70;99.90
26037;DHT22;13810;48.376;10.944;2023-03-14T00:51:06;9.70;99.90
26037;DHT22;13810;48.376;10.944;2023-03-14T00:51:37;9.70;99.90
26037;DHT22;13810;48.376;10.944;2023-03-14T00:52:07;9.60;99.90
26037;DHT22;13810;48.376;10.944;2023-03-14T00:52:38;9.70;99.90
26037;DHT22;13810;48.376;10.944;2023-03-14T00:53:09;9.60;99.90
26037;DHT22;13810;48.376;10.944;2023-03-14T00:53:40;9.70;99.90
26037;DHT22;13810;48.376;10.944;2023-03-14T00:54:11;9.60;99.90
26037;DHT22;13810;48.376;10.944;2023-03-14T00:54:42;9.60;99.90
26037;DHT22;13810;48.376;10.944;2023-03-14T00:55:12;9.60;99.90
26037;DHT22;13810;48.376;10.944;2023-03-14T00:55:43;9.60;99.90
26037;DHT22;13810;48.376;10.944;2023-03-14T00:56:14;9.60;99.90
26037;DHT22;13810;48.376;10.944;2023-03-14T00:56:45;9.60;99.90
26037;DHT22;13810;48.376;10.944;2023-03-14T00:57:15;9.60;99.90
26037;DHT22;13810;48.376;10.944;2023-03-14T00:57:46;9.60;99.90
26037;DHT22;13810;48.376;10.944;2023-03-14T00:58:17;9.60;99.90
26037;DHT22;13810;48.376;10.944;2023-03-14T00:58:48;9.60;99.90
26037;DHT22;13810;48.376;10.944;2023-03-14T00:59:19;9.60;99.90
26037;DHT22;13810;48.376;10.944;2023-03-14T00:59:50;9.60;99.90
26037;DHT22;13810;48.376;10.944;2023-03-14T01:00:22;9.60;99.90
26037;DHT22;13810;48.376;10.944;2023-03-14T01:00:53;9.60;99.90
26037;DHT22;13810;48.376;10.944;2023-03-14T01:01:23;9.70;99.90
26037;DHT22;13810;48.376;10.944;2023-03-14T01:01:54;9.60;99.90
26037;DHT22;13810;48.376;10.944;2023-03-14T01:02:25;9.60;99.90
26037;DHT22;13810;48.376;10.944;2023-03-14T01:02:55;9.60;99.90
26037;DHT22;13810;48.376;10.944;2023-03-14T01:03:26;9.60;99.90
26037;DHT22;13810;48.376;10.944;2023-03-14T01:03:57;9.60;99.90
26037;DHT22;13810;48.376;10.944;2023-03-14T01:04:27;9.50;99.90
26037;DHT22;13810;48.376;10.944;2023-03-14T01:04:58;9.50;99.90
26037;DHT22;13810;48.376;10.944;2023-03-14T01:05:29;9.50;99.90
26037;DHT22;13810;48.376;10.944;2023-03-14T01:06:11;9.50;99.90
26037;DHT22;13810;48.376;10.944;2023-03-14T01:06:42;9.50;99.90
26037;DHT22;13810;48.376;10.944;2023-03-14T01:07:12;9.50;99.90
26037;DHT22;13810;48.376;10.944;2023-03-14T01:07:44;9.50;99.90
26037;DHT22;13810;48.376;10.944;2023-03-14T01:08:15;9.50;99.90
26037;DHT22;13810;48.376;10.944;2023-03-14T01:08:46;9.50;99.90
26037;DHT22;13810;48.376;10.944;2023-03-14T01:09:17;9.50;99.90
26037;DHT22;13810;48.376;10.944;2023-03-14T01:09:51;9.50;99.90
26037;DHT22;13810;48.376;10.944;2023-03-14T01:10:22;9.50;99.90
26037;DHT22;13810;48.376;10.944;2023-03-14T01:10:53;9.40;99.90
26037;DHT22;13810;48.376;10.944;2023-03-14T01:11:28;9.40;99.90
26037;DHT22;13810;48.376;10.944;2023-03-14T01:12:00;9.40;99.90
26037;DHT22;13810;48.376;10.944;2023-03-14T01:12:31;9.40;99.90
26037;DHT22;13810;48.376;10.944;2023-03-14T01:13:01;9.30;99.90
26037;DHT22;13810;48.376;10.944;2023-03-14T01:13:32;9.40;99.90
26037;DHT22;13810;48.376;10.944;2023-03-14T01:14:03;9.30;99.90
26037;DHT22;13810;48.376;10.944;2023-03-14T01:14:34;9.40;99.90
26037;DHT22;13810;48.376;10.944;2023-03-14T01:15:06;9.40;99.90
26037;DHT22;13810;48.376;10.944;2023-03-14T01:16:10;9.30;99.90
26037;DHT22;13810;48.376;10.944;2023-03-14T01:16:41;9.30;99.90
26037;DHT22;13810;48.376;10.944;2023-03-14T01:17:11;9.30;99.90
26037;DHT22;13810;48.376;10.944;2023-03-14T01:17:42;9.30;99.90
26037;DHT22;13810;48.376;10.944;2023-03-14T01:18:13;9.30;99.90
26037;DHT22;13810;48.376;10.944;2023-03-14T01:18:44;9.30;99.90
26037;DHT22;13810;48.376;10.944;2023-03-14T01:19:15;9.30;99.90
26037;DHT22;13810;48.376;10.944;2023-03-14T01:19:46;9.30;99.90
26037;DHT22;13810;48.376;10.944;2023-03-14T01:20:18;9.30;99.90
26037;DHT22;13810;48.376;10.944;2023-03-14T01:20:49;9.30;99.90
26037;DHT22;13810;48.376;10.944;2023-03-14T01:21:23;9.30;99.90
26037;DHT22;13810;48.376;10.944;2023-03-14T01:21:54;9.30;99.90
26037;DHT22;13810;48.376;10.944;2023-03-14T01:22:25;9.30;99.90
26037;DHT22;13810;48.376;10.944;2023-03-14T01:22:55;9.30;99.90
26037;DHT22;13810;48.376;10.944;2023-03-14T01:23:26;9.30;99.90
26037;DHT22;13810;48.376;10.944;2023-03-14T01:23:58;9.30;99.90
26037;DHT22;13810;48.376;10.944;2023-03-14T01:24:29;9.20;99.90
26037;DHT22;13810;48.376;10.944;2023-03-14T01:25:00;9.30;99.90
26037;DHT22;13810;48.376;10.944;2023-03-14T01:25:30;9.30;99.90
26037;DHT22;13810;48.376;10.944;2023-03-14T01:26:01;9.30;99.90
26037;DHT22;13810;48.376;10.944;2023-03-14T01:26:34;9.30;99.90
26037;DHT22;13810;48.376;10.944;2023-03-14T01:27:04;9.20;99.90
26037;DHT22;13810;48.376;10.944;2023-03-14T01:27:35;9.30;99.90
26037;DHT22;13810;48.376;10.944;2023-03-14T01:28:06;9.30;99.90
26037;DHT22;13810;48.376;10.944;2023-03-14T01:28:37;9.20;99.90
26037;DHT22;13810;48.376;10.944;2023-03-14T01:29:07;9.20;99.90
26037;DHT22;13810;48.376;10.944;2023-03-14T01:29:38;9.20;99.90
26037;DHT22;13810;48.376;10.944;2023-03-14T01:30:10;9.20;99.90
26037;DHT22;13810;48.376;10.944;2023-03-14T01:30:41;9.20;99.90
26037;DHT22;13810;48.376;10.944;2023-03-14T01:31:12;9.20;99.90
26037;DHT22;13810;48.376;10.944;2023-03-14T01:31:43;9.20;99.90
26037;DHT22;13810;48.376;10.944;2023-03-14T01:32:14;9.10;99.90
26037;DHT22;13810;48.376;10.944;2023-03-14T01:32:44;9.10;99.90
26037;DHT22;13810;48.376;10.944;2023-03-14T01:33:15;9.10;99.90
26037;DHT22;13810;48.376;10.944;2023-03-14T01:33:46;9.10;99.90
26037;DHT22;13810;48.376;10.944;2023-03-14T01:34:17;9.10;99.90
26037;DHT22;13810;48.376;10.944;2023-03-14T01:34:48;9.10;99.90
26037;DHT22;13810;48.376;10.944;2023-03-14T01:35:18;9.00;99.90
26037;DHT22;13810;48.376;10.944;2023-03-14T01:35:52;9.00;99.90
26037;DHT22;13810;48.376;10.944;2023-03-14T01:36:22;9.00;99.90
26037;DHT22;13810;48.376;10.944;2023-03-14T01:36:53;9.00;99.90
26037;DHT22;13810;48.376;10.944;2023-03-14T01:37:24;9.00;99.90
26037;DHT22;13810;48.376;10.944;2023-03-14T01:37:54;9.00;99.90
26037;DHT22;13810;48.376;10.944;2023-03-14T01:38:25;9.00;99.90
26037;DHT22;13810;48.376;10.944;2023-03-14T01:38:56;9.00;99.90
26037;DHT22;13810;48.376;10.944;2023-03-14T01:39:26;9.00;99.90
26037;DHT22;13810;48.376;10.944;2023-03-14T01:39:58;9.00;99.90
26037;DHT22;13810;48.376;10.944;2023-03-14T01:40:29;9.00;99.90
26037;DHT22;13810;48.376;10.944;2023-03-14T01:41:00;9.00;99.90
26037;DHT22;13810;48.376;10.944;2023-03-14T01:41:32;9.00;99.90
26037;DHT22;13810;48.376;10.944;2023-03-14T01:42:02;8.90;99.90
26037;DHT22;13810;48.376;10.944;2023-03-14T01:42:33;8.90;99.90
26037;DHT22;13810;48.376;10.944;2023-03-14T01:43:15;9.00;99.90
26037;DHT22;13810;48.376;10.944;2023-03-14T01:43:46;9.00;99.90
26037;DHT22;13810;48.376;10.944;2023-03-14T01:44:17;9.00;99.90
26037;DHT22;13810;48.376;10.944;2023-03-14T01:44:59;8.90;99.90
26037;DHT22;13810;48.376;10.944;2023-03-14T01:46:43;8.90;99.90
26037;DHT22;13810;48.376;10.944;2023-03-14T01:47:14;8.90;99.90
26037;DHT22;13810;48.376;10.944;2023-03-14T01:47:44;8.80;99.90
26037;DHT22;13810;48.376;10.944;2023-03-14T01:48:15;8.80;99.90
26037;DHT22;13810;48.376;10.944;2023-03-14T01:48:53;8.80;99.90
26037;DHT22;13810;48.376;10.944;2023-03-14T01:50:04;8.80;99.90
26037;DHT22;13810;48.376;10.944;2023-03-14T01:50:36;8.80;99.90
26037;DHT22;13810;48.376;10.944;2023-03-14T01:51:11;8.80;99.90
26037;DHT22;13810;48.376;10.944;2023-03-14T01:52:09;8.80;99.90
26037;DHT22;13810;48.376;10.944;2023-03-14T01:52:46;8.70;99.90
26037;DHT22;13810;48.376;10.944;2023-03-14T01:53:18;8.70;99.90
26037;DHT22;13810;48.376;10.944;2023-03-14T01:53:52;8.70;99.90
26037;DHT22;13810;48.376;10.944;2023-03-14T01:54:34;8.70;99.90
26037;DHT22;13810;48.376;10.944;2023-03-14T01:55:17;8.60;99.90
26037;DHT22;13810;48.376;10.944;2023-03-14T01:55:50;8.60;99.90
26037;DHT22;13810;48.376;10.944;2023-03-14T01:56:22;8.50;99.90
26037;DHT22;13810;48.376;10.944;2023-03-14T01:57:01;8.50;99.90
26037;DHT22;13810;48.376;10.944;2023-03-14T01:57:43;8.50;99.90
26037;DHT22;13810;48.376;10.944;2023-03-14T01:58:16;8.50;99.90
26037;DHT22;13810;48.376;10.944;2023-03-14T01:58:49;8.50;99.90
26037;DHT22;13810;48.376;10.944;2023-03-14T01:59:21;8.50;99.90
26037;DHT22;13810;48.376;10.944;2023-03-14T02:00:03;8.40;99.90
26037;DHT22;13810;48.376;10.944;2023-03-14T02:00:39;8.50;99.90
26037;DHT22;13810;48.376;10.944;2023-03-14T02:01:09;8.40;99.90
26037;DHT22;13810;48.376;10.944;2023-03-14T02:01:42;8.40;99.90
26037;DHT22;13810;48.376;10.944;2023-03-14T02:02:14;8.40;99.90
26037;DHT22;13810;48.376;10.944;2023-03-14T02:02:51;8.40;99.90
26037;DHT22;13810;48.376;10.944;2023-03-14T02:03:24;8.40;99.90
26037;DHT22;13810;48.376;10.944;2023-03-14T02:03:59;8.40;99.90
26037;DHT22;13810;48.376;10.944;2023-03-14T02:04:32;8.40;99.90
26037;DHT22;13810;48.376;10.944;2023-03-14T02:05:03;8.40;99.90
26037;DHT22;13810;48.376;10.944;2023-03-14T02:05:37;8.30;99.90
26037;DHT22;13810;48.376;10.944;2023-03-14T02:06:08;8.40;99.90
26037;DHT22;13810;48.376;10.944;2023-03-14T02:07:29;8.30;99.90
26037;DHT22;13810;48.376;10.944;2023-03-14T02:08:02;8.30;99.90
26037;DHT22;13810;48.376;10.944;2023-03-14T02:08:35;8.30;99.90
26037;DHT22;13810;48.376;10.944;2023-03-14T02:09:08;8.30;99.90
26037;DHT22;13810;48.376;10.944;2023-03-14T02:09:39;8.30;99.90
26037;DHT22;13810;48.376;10.944;2023-03-14T02:10:10;8.30;99.90
26037;DHT22;13810;48.376;10.944;2023-03-14T02:10:45;8.30;99.90
26037;DHT22;13810;48.376;10.944;2023-03-14T02:11:17;8.30;99.90
26037;DHT22;13810;48.376;10.944;2023-03-14T02:11:49;8.20;99.90
26037;DHT22;13810;48.376;10.944;2023-03-14T02:12:20;8.30;99.90
26037;DHT22;13810;48.376;10.944;2023-03-14T02:12:53;8.30;99.90
26037;DHT22;13810;48.376;10.944;2023-03-14T02:13:25;8.30;99.90
26037;DHT22;13810;48.376;10.944;2023-03-14T02:13:57;8.30;99.90
26037;DHT22;13810;48.376;10.944;2023-03-14T02:14:32;8.30;99.90
26037;DHT22;13810;48.376;10.944;2023-03-14T02:15:03;8.20;99.90
26037;DHT22;13810;48.376;10.944;2023-03-14T02:15:34;8.30;99.90
26037;DHT22;13810;48.376;10.944;2023-03-14T02:16:05;8.20;99.90
26037;DHT22;13810;48.376;10.944;2023-03-14T02:16:36;8.20;99.90
26037;DHT22;13810;48.376;10.944;2023-03-14T02:17:07;8.20;99.90
26037;DHT22;13810;48.376;10.944;2023-03-14T02:17:43;8.20;99.90
26037;DHT22;13810;48.376;10.944;2023-03-14T02:18:16;8.20;99.90
26037;DHT22;13810;48.376;10.944;2023-03-14T02:18:47;8.20;99.90
26037;DHT22;13810;48.376;10.944;2023-03-14T02:19:23;8.20;99.90
26037;DHT22;13810;48.376;10.944;2023-03-14T02:21:46;8.20;99.90
26037;DHT22;13810;48.376;10.944;2023-03-14T02:22:17;8.20;99.90
26037;DHT22;13810;48.376;10.944;2023-03-14T02:22:48;8.30;99.90
26037;DHT22;13810;48.376;10.944;2023-03-14T02:25:42;8.30;99.90
26037;DHT22;13810;48.376;10.944;2023-03-14T02:26:27;8.30;99.90
26037;DHT22;13810;48.376;10.944;2023-03-14T02:27:16;8.30;99.90
26037;DHT22;13810;48.376;10.944;2023-03-14T02:27:47;8.30;99.90
26037;DHT22;13810;48.376;10.944;2023-03-14T02:28:18;8.30;99.90
26037;DHT22;13810;48.376;10.944;2023-03-14T02:28:51;8.30;99.90
26037;DHT22;13810;48.376;10.944;2023-03-14T02:29:23;8.30;99.90
26037;DHT22;13810;48.376;10.944;2023-03-14T02:30:01;8.30;99.90
26037;DHT22;13810;48.376;10.944;2023-03-14T02:30:33;8.30;99.90
26037;DHT22;13810;48.376;10.944;2023-03-14T02:31:04;8.30;99.90
26037;DHT22;13810;48.376;10.944;2023-03-14T02:31:35;8.30;99.90
26037;DHT22;13810;48.376;10.944;2023-03-14T02:32:06;8.30;99.90
26037;DHT22;13810;48.376;10.944;2023-03-14T02:32:40;8.30;99.90
26037;DHT22;13810;48.376;10.944;2023-03-14T02:33:15;8.30;99.90
26037;DHT22;13810;48.376;10.944;2023-03-14T02:33:46;8.30;99.90
26037;DHT22;13810;48.376;10.944;2023-03-14T02:34:17;8.30;99.90
26037;DHT22;13810;48.376;10.944;2023-03-14T02:34:50;8.30;99.90
26037;DHT22;13810;48.376;10.944;2023-03-14T02:35:25;8.30;99.90
26037;DHT22;13810;48.376;10.944;2023-03-14T02:35:59;8.30;99.90
26037;DHT22;13810;48.376;10.944;2023-03-14T02:36:31;8.30;99.90
26037;DHT22;13810;48.376;10.944;2023-03-14T02:37:02;8.30;99.90
26037;DHT22;13810;48.376;10.944;2023-03-14T02:37:52;8.30;99.90
26037;DHT22;13810;48.376;10.944;2023-03-14T02:39:08;8.30;99.90
26037;DHT22;13810;48.376;10.944;2023-03-14T02:39:44;8.30;99.90
26037;DHT22;13810;48.376;10.944;2023-03-14T02:40:15;8.30;99.90
26037;DHT22;13810;48.376;10.944;2023-03-14T02:40:46;8.30;99.90
26037;DHT22;13810;48.376;10.944;2023-03-14T02:41:17;8.30;99.90
26037;DHT22;13810;48.376;10.944;2023-03-14T02:41:47;8.30;99.90
26037;DHT22;13810;48.376;10.944;2023-03-14T02:42:21;8.30;99.90
26037;DHT22;13810;48.376;10.944;2023-03-14T02:42:52;8.30;99.90
26037;DHT22;13810;48.376;10.944;2023-03-14T02:43:22;8.30;99.90
26037;DHT22;13810;48.376;10.944;2023-03-14T02:43:53;8.30;99.90
26037;DHT22;13810;48.376;10.944;2023-03-14T02:44:24;8.40;99.90
26037;DHT22;13810;48.376;10.944;2023-03-14T02:45:44;8.40;99.90
26037;DHT22;13810;48.376;10.944;2023-03-14T02:45:50;8.40;99.90
26037;DHT22;13810;48.376;10.944;2023-03-14T02:46:21;8.40;99.90
26037;DHT22;13810;48.376;10.944;2023-03-14T02:46:52;8.40;99.90
26037;DHT22;13810;48.376;10.944;2023-03-14T02:47:27;8.40;99.90
26037;DHT22;13810;48.376;10.944;2023-03-14T02:48:04;8.40;99.90
26037;DHT22;13810;48.376;10.944;2023-03-14T02:48:46;8.40;99.90
26037;DHT22;13810;48.376;10.944;2023-03-14T02:49:18;8.40;99.90
26037;DHT22;13810;48.376;10.944;2023-03-14T02:49:51;8.40;99.90
26037;DHT22;13810;48.376;10.944;2023-03-14T02:50:25;8.40;99.90
26037;DHT22;13810;48.376;10.944;2023-03-14T02:50:58;8.40;99.90
26037;DHT22;13810;48.376;10.944;2023-03-14T02:51:29;8.40;99.90
26037;DHT22;13810;48.376;10.944;2023-03-14T02:52:00;8.40;99.90
26037;DHT22;13810;48.376;10.944;2023-03-14T02:52:31;8.50;99.90
26037;DHT22;13810;48.376;10.944;2023-03-14T02:53:02;8.40;99.90
26037;DHT22;13810;48.376;10.944;2023-03-14T02:53:34;8.50;99.90
26037;DHT22;13810;48.376;10.944;2023-03-14T02:54:05;8.50;99.90
26037;DHT22;13810;48.376;10.944;2023-03-14T02:54:36;8.50;99.90
26037;DHT22;13810;48.376;10.944;2023-03-14T02:55:07;8.50;99.90
26037;DHT22;13810;48.376;10.944;2023-03-14T02:55:37;8.50;99.90
26037;DHT22;13810;48.376;10.944;2023-03-14T02:56:09;8.50;99.90
26037;DHT22;13810;48.376;10.944;2023-03-14T02:56:40;8.50;99.90
26037;DHT22;13810;48.376;10.944;2023-03-14T02:57:10;8.50;99.90
26037;DHT22;13810;48.376;10.944;2023-03-14T02:57:41;8.50;99.90
26037;DHT22;13810;48.376;10.944;2023-03-14T02:58:12;8.50;99.90
26037;DHT22;13810;48.376;10.944;2023-03-14T02:58:43;8.50;99.90
26037;DHT22;13810;48.376;10.944;2023-03-14T02:59:13;8.50;99.90
26037;DHT22;13810;48.376;10.944;2023-03-14T02:59:44;8.50;99.90
26037;DHT22;13810;48.376;10.944;2023-03-14T03:00:15;8.50;99.90
26037;DHT22;13810;48.376;10.944;2023-03-14T03:00:46;8.50;99.90
26037;DHT22;13810;48.376;10.944;2023-03-14T03:01:16;8.50;99.90
26037;DHT22;13810;48.376;10.944;2023-03-14T03:01:47;8.50;99.90
26037;DHT22;13810;48.376;10.944;2023-03-14T03:02:18;8.50;99.90
26037;DHT22;13810;48.376;10.944;2023-03-14T03:02:48;8.50;99.90
26037;DHT22;13810;48.376;10.944;2023-03-14T03:03:19;8.50;99.90
26037;DHT22;13810;48.376;10.944;2023-03-14T03:03:50;8.50;99.90
26037;DHT22;13810;48.376;10.944;2023-03-14T03:04:20;8.50;99.90
26037;DHT22;13810;48.376;10.944;2023-03-14T03:04:51;8.60;99.90
26037;DHT22;13810;48.376;10.944;2023-03-14T03:05:21;8.50;99.90
26037;DHT22;13810;48.376;10.944;2023-03-14T03:05:54;8.60;99.90
26037;DHT22;13810;48.376;10.944;2023-03-14T03:06:25;8.60;99.90
26037;DHT22;13810;48.376;10.944;2023-03-14T03:06:56;8.60;99.90
26037;DHT22;13810;48.376;10.944;2023-03-14T03:07:26;8.60;99.90
26037;DHT22;13810;48.376;10.944;2023-03-14T03:07:57;8.60;99.90
26037;DHT22;13810;48.376;10.944;2023-03-14T03:08:28;8.60;99.90
26037;DHT22;13810;48.376;10.944;2023-03-14T03:08:59;8.60;99.90
26037;DHT22;13810;48.376;10.944;2023-03-14T03:09:30;8.60;99.90
26037;DHT22;13810;48.376;10.944;2023-03-14T03:10:01;8.60;99.90
26037;DHT22;13810;48.376;10.944;2023-03-14T03:10:32;8.60;99.90
26037;DHT22;13810;48.376;10.944;2023-03-14T03:11:04;8.60;99.90
26037;DHT22;13810;48.376;10.944;2023-03-14T03:11:34;8.60;99.90
26037;DHT22;13810;48.376;10.944;2023-03-14T03:12:05;8.60;99.90
26037;DHT22;13810;48.376;10.944;2023-03-14T03:12:36;8.50;99.90
26037;DHT22;13810;48.376;10.944;2023-03-14T03:13:07;8.60;99.90
26037;DHT22;13810;48.376;10.944;2023-03-14T03:13:37;8.60;99.90
26037;DHT22;13810;48.376;10.944;2023-03-14T03:14:08;8.50;99.90
26037;DHT22;13810;48.376;10.944;2023-03-14T03:14:39;8.60;99.90
26037;DHT22;13810;48.376;10.944;2023-03-14T03:15:10;8.60;99.90
26037;DHT22;13810;48.376;10.944;2023-03-14T03:15:40;8.60;99.90
26037;DHT22;13810;48.376;10.944;2023-03-14T03:16:11;8.60;99.90
26037;DHT22;13810;48.376;10.944;2023-03-14T03:16:43;8.60;99.90
26037;DHT22;13810;48.376;10.944;2023-03-14T03:17:14;8.50;99.90
26037;DHT22;13810;48.376;10.944;2023-03-14T03:17:45;8.50;99.90
26037;DHT22;13810;48.376;10.944;2023-03-14T03:18:16;8.50;99.90
26037;DHT22;13810;48.376;10.944;2023-03-14T03:18:46;8.60;99.90
26037;DHT22;13810;48.376;10.944;2023-03-14T03:19:17;8.60;99.90
26037;DHT22;13810;48.376;10.944;2023-03-14T03:19:48;8.60;99.90
26037;DHT22;13810;48.376;10.944;2023-03-14T03:20:18;8.60;99.90
26037;DHT22;13810;48.376;10.944;2023-03-14T03:20:49;8.60;99.90
26037;DHT22;13810;48.376;10.944;2023-03-14T03:21:20;8.60;99.90
26037;DHT22;13810;48.376;10.944;2023-03-14T03:21:53;8.60;99.90
26037;DHT22;13810;48.376;10.944;2023-03-14T03:22:24;8.60;99.90
26037;DHT22;13810;48.376;10.944;2023-03-14T03:22:54;8.60;99.90
26037;DHT22;13810;48.376;10.944;2023-03-14T03:23:25;8.60;99.90
26037;DHT22;13810;48.376;10.944;2023-03-14T03:23:56;8.60;99.90
26037;DHT22;13810;48.376;10.944;2023-03-14T03:24:27;8.60;99.90
26037;DHT22;13810;48.376;10.944;2023-03-14T03:24:58;8.60;99.90
26037;DHT22;13810;48.376;10.944;2023-03-14T03:25:29;8.60;99.90
26037;DHT22;13810;48.376;10.944;2023-03-14T03:25:59;8.60;99.90
26037;DHT22;13810;48.376;10.944;2023-03-14T03:26:30;8.60;99.90
26037;DHT22;13810;48.376;10.944;2023-03-14T03:27:01;8.60;99.90
26037;DHT22;13810;48.376;10.944;2023-03-14T03:27:33;8.60;99.90
26037;DHT22;13810;48.376;10.944;2023-03-14T03:28:04;8.70;99.90
26037;DHT22;13810;48.376;10.944;2023-03-14T03:28:38;8.60;99.90
26037;DHT22;13810;48.376;10.944;2023-03-14T03:29:08;8.70;99.90
26037;DHT22;13810;48.376;10.944;2023-03-14T03:29:39;8.60;99.90